Página principal
METAR-TAF:

METAR-TAF

Aeroportos :

Córdova, Espanha

latitude: 37-51N, longitude: 004-51W, altura: 90 m

Observação actual do tempo

O boletim foi feito há 23 minutos, às 06:30 UTC
Vento 5 kt de es-nordeste
Temperatura 17°C
Humidade 42%
Pressão 1017 hPa
Visibilidade 10 km ou mais
sem nuvens abaixo de 1500 metros e sem cumulonimbus

METAR: LEBA 250630Z 07005KT CAVOK 17/04 Q1017

Hora: 08:53 (06:53 UTC)

Previsão

O boletim foi feito há 4 horas e 53 minutos, às 02:00 UTC
Previsão válida de 25 às 03 UTC a 26 às 03 UTC
Vento 7 kt de nordeste
Visibilidade 10 km ou mais
sem nuvens abaixo de 1500 metros e sem cumulonimbus

TAF: LEBA 250200Z 2503/2603 04007KT CAVOK TX29/2515Z TN13/2506Z

Observações e previsões do tempo de mais de 4000 aeroportos (mensagens METAR e TAF).

As estações disponíveis são os pontos amarelos e vermelhos sobre o mapa.

Mova o rato sobre o mapa para ver o nome da estação.

Depois clique no ponto para visualizar as observações e previsões meteorológicas.

Para alterar o mapa : clique nos botões verdes com uma cruz preta para aumentar o zoom; no botão verde com uma pitada de zoom; ou nas setas verdes para mapas adjacentes.


METAR-TAF: